0FD9 weather

Joy Farms Airport
Defuniak Springs, Florida, United States

Public forecast

Using degrees Fahrenheit for public forecast. Weather courtesy of forecast.io.

METAR (pilot weather report)

Closest report is Defuniak Springs Airport, 5.2 nm (9.7 km) NNW. Retrieved 2018/06/22 02:35 UTC (19 minutes ago):

K54J 220235Z AUTO 22003KT 10SM CLR 25/22 A2992 RMK AO2 T02530217

TAF (pilot weather forecast)

Closest forecast is Duke Field, 21.4 nm (39.6 km) W. Retrieved 2018/06/22 01:05 UTC (2 hours ago):

TAF KEGI 220100Z 2201/2307 24012G18KT 9999 FEW025 SCT100 BKN250 QNH2989INS BECMG 2202/2203 24012G18KT 9000 -SHRA SCT025 BKN080 OVC120 QNH2988INS TEMPO 2210/2214 22010G15KT 4800 -TSRA BKN020CB BECMG 2213/2214 25012KT 9999 NSW FEW035 SCT080 QNH2987INS BECMG 2221/2222 24012G18KT 9999 SCT025 QNH2986INS TX34/2219Z TN23/2210Z LAST NO AMDS AFT 2205 NEXT 2213